sensor_id;sensor_type;location;lat;lon;timestamp;P1;durP1;ratioP1;P2;durP2;ratioP2
4638;SDS011;2332;38.646;-9.154;2022-10-17T00:01:08;8.10;;;2.70;;
4638;SDS011;2332;38.646;-9.154;2022-10-17T00:03:34;3.70;;;2.80;;
4638;SDS011;2332;38.646;-9.154;2022-10-17T00:06:08;3.57;;;2.60;;
4638;SDS011;2332;38.646;-9.154;2022-10-17T00:08:36;5.37;;;2.93;;
4638;SDS011;2332;38.646;-9.154;2022-10-17T00:11:07;3.00;;;2.60;;
4638;SDS011;2332;38.646;-9.154;2022-10-17T00:13:34;5.40;;;2.77;;
4638;SDS011;2332;38.646;-9.154;2022-10-17T00:16:02;6.60;;;3.23;;
4638;SDS011;2332;38.646;-9.154;2022-10-17T00:18:28;2.70;;;2.50;;
4638;SDS011;2332;38.646;-9.154;2022-10-17T00:20:54;3.60;;;2.70;;
4638;SDS011;2332;38.646;-9.154;2022-10-17T00:23:19;3.47;;;3.17;;
4638;SDS011;2332;38.646;-9.154;2022-10-17T00:25:56;3.70;;;2.87;;
4638;SDS011;2332;38.646;-9.154;2022-10-17T00:28:25;5.20;;;3.07;;
4638;SDS011;2332;38.646;-9.154;2022-10-17T00:30:57;5.50;;;3.17;;
4638;SDS011;2332;38.646;-9.154;2022-10-17T00:33:23;6.27;;;3.07;;
4638;SDS011;2332;38.646;-9.154;2022-10-17T00:35:49;6.03;;;3.10;;
4638;SDS011;2332;38.646;-9.154;2022-10-17T00:38:14;9.13;;;3.20;;
4638;SDS011;2332;38.646;-9.154;2022-10-17T00:40:40;3.30;;;3.00;;
4638;SDS011;2332;38.646;-9.154;2022-10-17T00:43:12;7.93;;;3.00;;
4638;SDS011;2332;38.646;-9.154;2022-10-17T00:45:40;5.33;;;3.40;;
4638;SDS011;2332;38.646;-9.154;2022-10-17T00:48:06;4.53;;;3.20;;
4638;SDS011;2332;38.646;-9.154;2022-10-17T00:50:33;4.60;;;3.03;;
4638;SDS011;2332;38.646;-9.154;2022-10-17T00:53:00;12.63;;;4.23;;
4638;SDS011;2332;38.646;-9.154;2022-10-17T00:55:28;4.83;;;3.43;;
4638;SDS011;2332;38.646;-9.154;2022-10-17T00:57:56;6.90;;;3.40;;
4638;SDS011;2332;38.646;-9.154;2022-10-17T01:00:22;9.33;;;3.83;;
4638;SDS011;2332;38.646;-9.154;2022-10-17T01:02:48;4.10;;;3.73;;
4638;SDS011;2332;38.646;-9.154;2022-10-17T01:05:16;11.07;;;3.90;;
4638;SDS011;2332;38.646;-9.154;2022-10-17T01:07:43;6.43;;;3.67;;
4638;SDS011;2332;38.646;-9.154;2022-10-17T01:10:10;7.33;;;3.90;;
4638;SDS011;2332;38.646;-9.154;2022-10-17T01:18:16;4.13;;;3.73;;
4638;SDS011;2332;38.646;-9.154;2022-10-17T01:29:03;6.73;;;3.80;;
4638;SDS011;2332;38.646;-9.154;2022-10-17T01:34:14;3.83;;;3.53;;
4638;SDS011;2332;38.646;-9.154;2022-10-17T01:36:49;7.13;;;3.43;;
4638;SDS011;2332;38.646;-9.154;2022-10-17T01:44:18;7.57;;;3.37;;
4638;SDS011;2332;38.646;-9.154;2022-10-17T01:46:48;3.57;;;3.17;;
4638;SDS011;2332;38.646;-9.154;2022-10-17T01:49:15;4.50;;;3.63;;
4638;SDS011;2332;38.646;-9.154;2022-10-17T01:51:46;4.57;;;3.90;;
4638;SDS011;2332;38.646;-9.154;2022-10-17T01:54:17;5.37;;;3.43;;
4638;SDS011;2332;38.646;-9.154;2022-10-17T01:56:47;3.90;;;3.60;;
4638;SDS011;2332;38.646;-9.154;2022-10-17T01:59:22;5.00;;;3.37;;
4638;SDS011;2332;38.646;-9.154;2022-10-17T02:01:51;6.70;;;3.63;;
4638;SDS011;2332;38.646;-9.154;2022-10-17T02:04:18;4.20;;;3.80;;
4638;SDS011;2332;38.646;-9.154;2022-10-17T02:06:43;7.77;;;3.80;;
4638;SDS011;2332;38.646;-9.154;2022-10-17T02:09:20;11.47;;;3.80;;
4638;SDS011;2332;38.646;-9.154;2022-10-17T02:12:01;6.17;;;3.50;;
4638;SDS011;2332;38.646;-9.154;2022-10-17T02:17:25;7.03;;;4.17;;
4638;SDS011;2332;38.646;-9.154;2022-10-17T02:25:47;4.40;;;3.27;;
4638;SDS011;2332;38.646;-9.154;2022-10-17T02:30:46;14.03;;;6.00;;
4638;SDS011;2332;38.646;-9.154;2022-10-17T02:33:30;5.43;;;4.33;;
4638;SDS011;2332;38.646;-9.154;2022-10-17T02:36:13;6.07;;;3.60;;
4638;SDS011;2332;38.646;-9.154;2022-10-17T02:38:43;4.87;;;4.37;;
4638;SDS011;2332;38.646;-9.154;2022-10-17T02:41:10;4.33;;;4.03;;
4638;SDS011;2332;38.646;-9.154;2022-10-17T02:43:39;4.13;;;3.80;;
4638;SDS011;2332;38.646;-9.154;2022-10-17T02:46:07;5.53;;;4.67;;
4638;SDS011;2332;38.646;-9.154;2022-10-17T02:48:36;6.57;;;4.07;;
4638;SDS011;2332;38.646;-9.154;2022-10-17T02:56:44;5.40;;;3.80;;
4638;SDS011;2332;38.646;-9.154;2022-10-17T02:59:13;5.53;;;4.00;;
4638;SDS011;2332;38.646;-9.154;2022-10-17T03:01:40;6.53;;;3.90;;
4638;SDS011;2332;38.646;-9.154;2022-10-17T03:04:07;6.77;;;4.30;;
4638;SDS011;2332;38.646;-9.154;2022-10-17T03:06:33;5.40;;;4.30;;
4638;SDS011;2332;38.646;-9.154;2022-10-17T03:08:59;10.07;;;4.60;;
4638;SDS011;2332;38.646;-9.154;2022-10-17T03:11:24;10.10;;;4.77;;
4638;SDS011;2332;38.646;-9.154;2022-10-17T03:13:50;9.10;;;4.63;;
4638;SDS011;2332;38.646;-9.154;2022-10-17T03:16:15;6.97;;;4.60;;
4638;SDS011;2332;38.646;-9.154;2022-10-17T03:18:41;7.87;;;4.67;;
4638;SDS011;2332;38.646;-9.154;2022-10-17T03:21:06;8.20;;;5.40;;
4638;SDS011;2332;38.646;-9.154;2022-10-17T03:23:32;6.57;;;4.67;;
4638;SDS011;2332;38.646;-9.154;2022-10-17T03:25:57;5.10;;;4.70;;
4638;SDS011;2332;38.646;-9.154;2022-10-17T03:28:23;6.33;;;4.53;;
4638;SDS011;2332;38.646;-9.154;2022-10-17T03:30:48;7.33;;;4.57;;
4638;SDS011;2332;38.646;-9.154;2022-10-17T03:33:14;5.33;;;4.40;;
4638;SDS011;2332;38.646;-9.154;2022-10-17T03:35:39;6.77;;;4.60;;
4638;SDS011;2332;38.646;-9.154;2022-10-17T03:38:05;9.40;;;5.17;;
4638;SDS011;2332;38.646;-9.154;2022-10-17T03:40:30;4.53;;;4.13;;
4638;SDS011;2332;38.646;-9.154;2022-10-17T03:42:56;9.90;;;4.90;;
4638;SDS011;2332;38.646;-9.154;2022-10-17T03:45:21;5.37;;;4.87;;
4638;SDS011;2332;38.646;-9.154;2022-10-17T03:47:47;6.67;;;5.53;;
4638;SDS011;2332;38.646;-9.154;2022-10-17T03:50:12;9.17;;;5.90;;
4638;SDS011;2332;38.646;-9.154;2022-10-17T03:52:38;6.30;;;4.20;;
4638;SDS011;2332;38.646;-9.154;2022-10-17T03:55:04;4.80;;;4.27;;
4638;SDS011;2332;38.646;-9.154;2022-10-17T03:57:30;5.93;;;4.80;;
4638;SDS011;2332;38.646;-9.154;2022-10-17T03:59:55;7.87;;;4.83;;
4638;SDS011;2332;38.646;-9.154;2022-10-17T04:02:21;9.40;;;4.80;;
4638;SDS011;2332;38.646;-9.154;2022-10-17T04:04:46;12.00;;;5.60;;
4638;SDS011;2332;38.646;-9.154;2022-10-17T04:07:12;9.23;;;4.90;;
4638;SDS011;2332;38.646;-9.154;2022-10-17T04:09:37;8.47;;;5.60;;
4638;SDS011;2332;38.646;-9.154;2022-10-17T04:12:03;11.77;;;5.27;;
4638;SDS011;2332;38.646;-9.154;2022-10-17T04:14:29;7.33;;;5.10;;
4638;SDS011;2332;38.646;-9.154;2022-10-17T04:16:54;12.07;;;7.07;;
4638;SDS011;2332;38.646;-9.154;2022-10-17T04:19:20;14.60;;;6.40;;
4638;SDS011;2332;38.646;-9.154;2022-10-17T04:21:45;12.00;;;6.20;;
4638;SDS011;2332;38.646;-9.154;2022-10-17T04:24:11;8.60;;;6.20;;
4638;SDS011;2332;38.646;-9.154;2022-10-17T04:26:36;7.17;;;5.73;;
4638;SDS011;2332;38.646;-9.154;2022-10-17T04:29:02;8.80;;;5.37;;
4638;SDS011;2332;38.646;-9.154;2022-10-17T04:31:27;8.63;;;6.20;;
4638;SDS011;2332;38.646;-9.154;2022-10-17T04:33:53;7.73;;;6.27;;
4638;SDS011;2332;38.646;-9.154;2022-10-17T04:36:19;12.37;;;6.57;;
4638;SDS011;2332;38.646;-9.154;2022-10-17T04:38:44;9.80;;;6.37;;
4638;SDS011;2332;38.646;-9.154;2022-10-17T04:41:11;9.30;;;6.30;;
4638;SDS011;2332;38.646;-9.154;2022-10-17T04:43:38;8.90;;;7.00;;
4638;SDS011;2332;38.646;-9.154;2022-10-17T04:46:05;10.33;;;6.80;;
4638;SDS011;2332;38.646;-9.154;2022-10-17T04:48:32;8.00;;;6.00;;
4638;SDS011;2332;38.646;-9.154;2022-10-17T04:50:59;10.30;;;7.30;;
4638;SDS011;2332;38.646;-9.154;2022-10-17T04:53:26;10.13;;;7.60;;
4638;SDS011;2332;38.646;-9.154;2022-10-17T04:55:52;8.30;;;6.83;;
4638;SDS011;2332;38.646;-9.154;2022-10-17T04:58:20;16.70;;;7.43;;
4638;SDS011;2332;38.646;-9.154;2022-10-17T05:00:45;11.47;;;7.50;;
4638;SDS011;2332;38.646;-9.154;2022-10-17T05:03:11;13.27;;;6.97;;
4638;SDS011;2332;38.646;-9.154;2022-10-17T05:05:37;14.50;;;6.97;;
4638;SDS011;2332;38.646;-9.154;2022-10-17T05:08:03;17.83;;;7.53;;
4638;SDS011;2332;38.646;-9.154;2022-10-17T05:10:30;11.50;;;6.80;;
4638;SDS011;2332;38.646;-9.154;2022-10-17T05:12:59;13.57;;;7.10;;
4638;SDS011;2332;38.646;-9.154;2022-10-17T05:15:25;12.80;;;7.50;;
4638;SDS011;2332;38.646;-9.154;2022-10-17T05:17:53;14.77;;;7.83;;
4638;SDS011;2332;38.646;-9.154;2022-10-17T05:20:20;15.93;;;7.20;;
4638;SDS011;2332;38.646;-9.154;2022-10-17T05:22:45;18.40;;;7.77;;
4638;SDS011;2332;38.646;-9.154;2022-10-17T05:25:11;9.17;;;7.00;;
4638;SDS011;2332;38.646;-9.154;2022-10-17T05:27:37;15.77;;;7.60;;
4638;SDS011;2332;38.646;-9.154;2022-10-17T05:30:02;17.27;;;8.20;;
4638;SDS011;2332;38.646;-9.154;2022-10-17T05:32:28;9.23;;;7.10;;
4638;SDS011;2332;38.646;-9.154;2022-10-17T05:34:54;9.10;;;7.60;;
4638;SDS011;2332;38.646;-9.154;2022-10-17T05:37:19;11.03;;;7.90;;
4638;SDS011;2332;38.646;-9.154;2022-10-17T05:39:45;17.53;;;8.57;;
4638;SDS011;2332;38.646;-9.154;2022-10-17T05:42:11;13.40;;;8.27;;
4638;SDS011;2332;38.646;-9.154;2022-10-17T05:44:39;20.47;;;9.20;;
4638;SDS011;2332;38.646;-9.154;2022-10-17T05:47:06;17.20;;;8.20;;
4638;SDS011;2332;38.646;-9.154;2022-10-17T05:49:32;13.43;;;9.00;;
4638;SDS011;2332;38.646;-9.154;2022-10-17T05:51:58;13.90;;;9.33;;
4638;SDS011;2332;38.646;-9.154;2022-10-17T05:54:24;12.93;;;8.73;;
4638;SDS011;2332;38.646;-9.154;2022-10-17T05:56:51;12.77;;;8.83;;
4638;SDS011;2332;38.646;-9.154;2022-10-17T05:59:17;13.80;;;9.63;;
4638;SDS011;2332;38.646;-9.154;2022-10-17T06:01:42;17.87;;;10.43;;
4638;SDS011;2332;38.646;-9.154;2022-10-17T06:04:08;16.93;;;9.43;;
4638;SDS011;2332;38.646;-9.154;2022-10-17T06:06:35;16.13;;;9.83;;
4638;SDS011;2332;38.646;-9.154;2022-10-17T06:09:01;18.03;;;9.13;;
4638;SDS011;2332;38.646;-9.154;2022-10-17T06:11:26;25.37;;;10.93;;
4638;SDS011;2332;38.646;-9.154;2022-10-17T06:13:52;11.80;;;9.00;;
4638;SDS011;2332;38.646;-9.154;2022-10-17T06:16:18;13.10;;;9.73;;
4638;SDS011;2332;38.646;-9.154;2022-10-17T06:18:43;14.60;;;10.03;;
4638;SDS011;2332;38.646;-9.154;2022-10-17T06:21:10;18.37;;;9.77;;
4638;SDS011;2332;38.646;-9.154;2022-10-17T06:23:36;19.00;;;10.33;;
4638;SDS011;2332;38.646;-9.154;2022-10-17T06:26:02;16.03;;;10.73;;
4638;SDS011;2332;38.646;-9.154;2022-10-17T06:28:29;19.97;;;10.33;;
4638;SDS011;2332;38.646;-9.154;2022-10-17T06:30:54;16.60;;;9.93;;
4638;SDS011;2332;38.646;-9.154;2022-10-17T06:33:20;13.47;;;9.63;;
4638;SDS011;2332;38.646;-9.154;2022-10-17T06:35:53;17.67;;;9.90;;
4638;SDS011;2332;38.646;-9.154;2022-10-17T06:38:22;23.10;;;11.30;;
4638;SDS011;2332;38.646;-9.154;2022-10-17T06:40:48;30.03;;;9.90;;
4638;SDS011;2332;38.646;-9.154;2022-10-17T06:43:13;15.73;;;10.47;;
4638;SDS011;2332;38.646;-9.154;2022-10-17T06:45:39;18.23;;;10.03;;
4638;SDS011;2332;38.646;-9.154;2022-10-17T06:48:05;19.30;;;9.90;;
4638;SDS011;2332;38.646;-9.154;2022-10-17T06:50:31;17.23;;;10.83;;
4638;SDS011;2332;38.646;-9.154;2022-10-17T06:52:56;18.53;;;10.27;;
4638;SDS011;2332;38.646;-9.154;2022-10-17T06:55:22;23.40;;;11.43;;
4638;SDS011;2332;38.646;-9.154;2022-10-17T06:57:48;17.00;;;9.90;;
4638;SDS011;2332;38.646;-9.154;2022-10-17T07:00:13;20.30;;;10.87;;
4638;SDS011;2332;38.646;-9.154;2022-10-17T07:02:39;24.57;;;11.10;;
4638;SDS011;2332;38.646;-9.154;2022-10-17T07:05:06;18.43;;;11.60;;
4638;SDS011;2332;38.646;-9.154;2022-10-17T07:07:32;21.70;;;10.73;;
4638;SDS011;2332;38.646;-9.154;2022-10-17T07:09:58;27.00;;;11.23;;
4638;SDS011;2332;38.646;-9.154;2022-10-17T07:12:24;17.30;;;9.77;;
4638;SDS011;2332;38.646;-9.154;2022-10-17T07:14:49;14.83;;;9.30;;
4638;SDS011;2332;38.646;-9.154;2022-10-17T07:17:15;18.53;;;10.60;;
4638;SDS011;2332;38.646;-9.154;2022-10-17T07:19:41;16.47;;;9.90;;
4638;SDS011;2332;38.646;-9.154;2022-10-17T07:22:10;16.07;;;8.87;;
4638;SDS011;2332;38.646;-9.154;2022-10-17T07:24:36;22.33;;;9.57;;
4638;SDS011;2332;38.646;-9.154;2022-10-17T07:27:02;20.50;;;8.57;;
4638;SDS011;2332;38.646;-9.154;2022-10-17T07:29:27;14.60;;;8.10;;
4638;SDS011;2332;38.646;-9.154;2022-10-17T07:31:53;17.63;;;8.57;;
4638;SDS011;2332;38.646;-9.154;2022-10-17T07:34:18;15.83;;;9.03;;
4638;SDS011;2332;38.646;-9.154;2022-10-17T07:36:44;17.40;;;8.37;;
4638;SDS011;2332;38.646;-9.154;2022-10-17T07:39:10;14.33;;;7.97;;
4638;SDS011;2332;38.646;-9.154;2022-10-17T07:41:35;14.40;;;8.00;;
4638;SDS011;2332;38.646;-9.154;2022-10-17T07:44:01;15.30;;;8.10;;
4638;SDS011;2332;38.646;-9.154;2022-10-17T07:46:27;12.20;;;8.53;;
4638;SDS011;2332;38.646;-9.154;2022-10-17T07:48:52;21.20;;;9.30;;
4638;SDS011;2332;38.646;-9.154;2022-10-17T07:51:18;25.57;;;11.43;;
4638;SDS011;2332;38.646;-9.154;2022-10-17T07:53:44;20.57;;;11.30;;
4638;SDS011;2332;38.646;-9.154;2022-10-17T07:56:10;16.93;;;10.30;;
4638;SDS011;2332;38.646;-9.154;2022-10-17T07:58:36;18.97;;;11.00;;
4638;SDS011;2332;38.646;-9.154;2022-10-17T08:01:03;21.67;;;10.00;;
4638;SDS011;2332;38.646;-9.154;2022-10-17T08:03:30;13.50;;;8.90;;
4638;SDS011;2332;38.646;-9.154;2022-10-17T08:05:56;21.13;;;9.00;;
4638;SDS011;2332;38.646;-9.154;2022-10-17T08:08:23;16.17;;;8.97;;
4638;SDS011;2332;38.646;-9.154;2022-10-17T08:10:48;18.23;;;9.27;;
4638;SDS011;2332;38.646;-9.154;2022-10-17T08:13:14;22.80;;;10.03;;
4638;SDS011;2332;38.646;-9.154;2022-10-17T08:15:39;23.67;;;9.10;;
4638;SDS011;2332;38.646;-9.154;2022-10-17T08:18:05;23.60;;;9.20;;
4638;SDS011;2332;38.646;-9.154;2022-10-17T08:20:31;15.43;;;9.30;;
4638;SDS011;2332;38.646;-9.154;2022-10-17T08:22:56;17.33;;;9.80;;
4638;SDS011;2332;38.646;-9.154;2022-10-17T08:25:22;16.20;;;9.13;;
4638;SDS011;2332;38.646;-9.154;2022-10-17T08:27:47;24.00;;;10.37;;
4638;SDS011;2332;38.646;-9.154;2022-10-17T08:30:13;16.47;;;9.70;;
4638;SDS011;2332;38.646;-9.154;2022-10-17T08:32:39;16.73;;;10.00;;
4638;SDS011;2332;38.646;-9.154;2022-10-17T08:35:04;18.30;;;9.30;;
4638;SDS011;2332;38.646;-9.154;2022-10-17T08:37:33;14.07;;;8.30;;
4638;SDS011;2332;38.646;-9.154;2022-10-17T08:39:59;16.37;;;9.00;;
4638;SDS011;2332;38.646;-9.154;2022-10-17T08:42:31;20.23;;;10.03;;
4638;SDS011;2332;38.646;-9.154;2022-10-17T08:45:20;23.43;;;9.00;;
4638;SDS011;2332;38.646;-9.154;2022-10-17T08:48:03;22.50;;;10.13;;
4638;SDS011;2332;38.646;-9.154;2022-10-17T08:50:41;19.90;;;8.60;;
4638;SDS011;2332;38.646;-9.154;2022-10-17T08:56:02;17.80;;;8.67;;
4638;SDS011;2332;38.646;-9.154;2022-10-17T08:58:35;15.57;;;8.73;;
4638;SDS011;2332;38.646;-9.154;2022-10-17T09:06:59;12.10;;;8.30;;
4638;SDS011;2332;38.646;-9.154;2022-10-17T09:12:22;14.73;;;8.03;;
4638;SDS011;2332;38.646;-9.154;2022-10-17T09:15:30;19.03;;;8.80;;
4638;SDS011;2332;38.646;-9.154;2022-10-17T09:20:35;15.03;;;7.37;;
4638;SDS011;2332;38.646;-9.154;2022-10-17T09:23:07;17.03;;;8.60;;
4638;SDS011;2332;38.646;-9.154;2022-10-17T09:25:43;26.13;;;7.53;;
4638;SDS011;2332;38.646;-9.154;2022-10-17T09:31:22;16.27;;;6.37;;
4638;SDS011;2332;38.646;-9.154;2022-10-17T09:33:56;13.10;;;5.20;;
4638;SDS011;2332;38.646;-9.154;2022-10-17T09:36:23;15.30;;;5.80;;
4638;SDS011;2332;38.646;-9.154;2022-10-17T09:38:54;5.20;;;4.47;;
4638;SDS011;2332;38.646;-9.154;2022-10-17T09:41:22;5.33;;;4.20;;
4638;SDS011;2332;38.646;-9.154;2022-10-17T09:43:53;16.80;;;5.10;;
4638;SDS011;2332;38.646;-9.154;2022-10-17T09:46:24;18.40;;;8.50;;
4638;SDS011;2332;38.646;-9.154;2022-10-17T09:49:28;16.23;;;8.83;;
4638;SDS011;2332;38.646;-9.154;2022-10-17T09:51:48;17.73;;;8.30;;
4638;SDS011;2332;38.646;-9.154;2022-10-17T09:54:22;16.30;;;8.07;;
4638;SDS011;2332;38.646;-9.154;2022-10-17T09:56:56;15.73;;;8.37;;
4638;SDS011;2332;38.646;-9.154;2022-10-17T09:59:30;17.03;;;10.80;;
4638;SDS011;2332;38.646;-9.154;2022-10-17T10:02:18;17.97;;;10.23;;
4638;SDS011;2332;38.646;-9.154;2022-10-17T10:04:52;20.30;;;9.80;;
4638;SDS011;2332;38.646;-9.154;2022-10-17T10:07:19;17.43;;;9.30;;
4638;SDS011;2332;38.646;-9.154;2022-10-17T10:09:48;20.00;;;7.50;;
4638;SDS011;2332;38.646;-9.154;2022-10-17T10:12:18;10.10;;;6.13;;
4638;SDS011;2332;38.646;-9.154;2022-10-17T10:14:49;19.27;;;7.60;;
4638;SDS011;2332;38.646;-9.154;2022-10-17T10:20:00;16.43;;;8.67;;
4638;SDS011;2332;38.646;-9.154;2022-10-17T10:22:26;15.93;;;9.93;;
4638;SDS011;2332;38.646;-9.154;2022-10-17T10:27:40;17.93;;;7.80;;
4638;SDS011;2332;38.646;-9.154;2022-10-17T10:30:15;21.83;;;10.37;;
4638;SDS011;2332;38.646;-9.154;2022-10-17T10:32:44;13.37;;;7.27;;
4638;SDS011;2332;38.646;-9.154;2022-10-17T10:35:18;15.30;;;7.47;;
4638;SDS011;2332;38.646;-9.154;2022-10-17T10:37:51;18.67;;;8.60;;
4638;SDS011;2332;38.646;-9.154;2022-10-17T10:42:58;15.73;;;8.10;;
4638;SDS011;2332;38.646;-9.154;2022-10-17T10:45:25;20.20;;;9.60;;
4638;SDS011;2332;38.646;-9.154;2022-10-17T10:48:06;11.60;;;7.30;;
4638;SDS011;2332;38.646;-9.154;2022-10-17T10:50:47;11.73;;;7.10;;
4638;SDS011;2332;38.646;-9.154;2022-10-17T10:53:29;22.20;;;8.97;;
4638;SDS011;2332;38.646;-9.154;2022-10-17T10:56:17;13.33;;;8.03;;
4638;SDS011;2332;38.646;-9.154;2022-10-17T10:58:55;13.70;;;8.03;;
4638;SDS011;2332;38.646;-9.154;2022-10-17T11:04:29;18.97;;;9.37;;
4638;SDS011;2332;38.646;-9.154;2022-10-17T11:07:06;27.27;;;10.33;;
4638;SDS011;2332;38.646;-9.154;2022-10-17T11:09:45;14.17;;;6.90;;
4638;SDS011;2332;38.646;-9.154;2022-10-17T11:12:26;17.67;;;8.20;;
4638;SDS011;2332;38.646;-9.154;2022-10-17T11:15:06;14.97;;;6.90;;
4638;SDS011;2332;38.646;-9.154;2022-10-17T11:17:41;17.47;;;4.67;;
4638;SDS011;2332;38.646;-9.154;2022-10-17T11:20:14;10.73;;;2.80;;
4638;SDS011;2332;38.646;-9.154;2022-10-17T11:22:48;9.43;;;3.20;;
4638;SDS011;2332;38.646;-9.154;2022-10-17T11:25:30;5.33;;;2.27;;
4638;SDS011;2332;38.646;-9.154;2022-10-17T11:27:59;9.00;;;3.00;;
4638;SDS011;2332;38.646;-9.154;2022-10-17T11:30:26;8.73;;;1.97;;
4638;SDS011;2332;38.646;-9.154;2022-10-17T11:32:57;8.90;;;3.03;;
4638;SDS011;2332;38.646;-9.154;2022-10-17T11:35:29;14.53;;;3.37;;
4638;SDS011;2332;38.646;-9.154;2022-10-17T11:40:43;8.33;;;2.57;;
4638;SDS011;2332;38.646;-9.154;2022-10-17T11:43:15;11.70;;;2.57;;
4638;SDS011;2332;38.646;-9.154;2022-10-17T11:45:50;6.80;;;2.30;;
4638;SDS011;2332;38.646;-9.154;2022-10-17T11:48:27;8.67;;;2.70;;
4638;SDS011;2332;38.646;-9.154;2022-10-17T11:50:59;6.17;;;2.83;;
4638;SDS011;2332;38.646;-9.154;2022-10-17T11:56:11;9.27;;;2.70;;
4638;SDS011;2332;38.646;-9.154;2022-10-17T11:58:51;7.23;;;2.83;;
4638;SDS011;2332;38.646;-9.154;2022-10-17T12:04:06;7.83;;;2.80;;
4638;SDS011;2332;38.646;-9.154;2022-10-17T12:11:48;8.00;;;3.20;;
4638;SDS011;2332;38.646;-9.154;2022-10-17T12:17:29;16.60;;;2.70;;
4638;SDS011;2332;38.646;-9.154;2022-10-17T12:25:19;10.43;;;2.77;;
4638;SDS011;2332;38.646;-9.154;2022-10-17T12:27:47;13.60;;;3.47;;
4638;SDS011;2332;38.646;-9.154;2022-10-17T12:35:36;7.33;;;3.00;;
4638;SDS011;2332;38.646;-9.154;2022-10-17T12:40:49;9.23;;;2.90;;
4638;SDS011;2332;38.646;-9.154;2022-10-17T12:56:30;14.77;;;2.90;;
4638;SDS011;2332;38.646;-9.154;2022-10-17T12:59:00;10.10;;;3.40;;
4638;SDS011;2332;38.646;-9.154;2022-10-17T13:01:32;6.57;;;2.97;;
4638;SDS011;2332;38.646;-9.154;2022-10-17T13:03:59;5.00;;;2.83;;
4638;SDS011;2332;38.646;-9.154;2022-10-17T13:06:31;17.73;;;3.20;;
4638;SDS011;2332;38.646;-9.154;2022-10-17T13:09:14;8.07;;;2.77;;
4638;SDS011;2332;38.646;-9.154;2022-10-17T13:11:45;7.67;;;3.20;;
4638;SDS011;2332;38.646;-9.154;2022-10-17T13:14:13;9.07;;;2.97;;
4638;SDS011;2332;38.646;-9.154;2022-10-17T13:16:49;15.17;;;3.80;;
4638;SDS011;2332;38.646;-9.154;2022-10-17T13:19:23;10.43;;;3.47;;
4638;SDS011;2332;38.646;-9.154;2022-10-17T13:24:28;10.57;;;3.07;;
4638;SDS011;2332;38.646;-9.154;2022-10-17T13:27:01;6.07;;;3.90;;
4638;SDS011;2332;38.646;-9.154;2022-10-17T13:29:28;9.20;;;3.87;;
4638;SDS011;2332;38.646;-9.154;2022-10-17T13:32:00;3.30;;;3.00;;
4638;SDS011;2332;38.646;-9.154;2022-10-17T13:34:28;8.90;;;2.67;;
4638;SDS011;2332;38.646;-9.154;2022-10-17T13:36:58;9.30;;;3.60;;
4638;SDS011;2332;38.646;-9.154;2022-10-17T13:39:27;6.13;;;3.50;;
4638;SDS011;2332;38.646;-9.154;2022-10-17T13:41:54;10.00;;;3.10;;
4638;SDS011;2332;38.646;-9.154;2022-10-17T13:44:24;5.03;;;3.20;;
4638;SDS011;2332;38.646;-9.154;2022-10-17T13:46:51;8.33;;;3.00;;
4638;SDS011;2332;38.646;-9.154;2022-10-17T13:51:58;8.50;;;3.63;;
4638;SDS011;2332;38.646;-9.154;2022-10-17T13:55:05;8.83;;;3.77;;
4638;SDS011;2332;38.646;-9.154;2022-10-17T13:57:27;9.77;;;3.37;;
4638;SDS011;2332;38.646;-9.154;2022-10-17T13:59:58;15.77;;;3.73;;
4638;SDS011;2332;38.646;-9.154;2022-10-17T14:02:26;3.50;;;2.40;;
4638;SDS011;2332;38.646;-9.154;2022-10-17T14:10:41;7.97;;;3.20;;
4638;SDS011;2332;38.646;-9.154;2022-10-17T14:13:13;8.27;;;2.67;;
4638;SDS011;2332;38.646;-9.154;2022-10-17T14:15:52;14.20;;;3.70;;
4638;SDS011;2332;38.646;-9.154;2022-10-17T14:18:28;7.03;;;2.83;;
4638;SDS011;2332;38.646;-9.154;2022-10-17T14:20:56;9.03;;;3.37;;
4638;SDS011;2332;38.646;-9.154;2022-10-17T14:28:30;5.70;;;3.20;;
4638;SDS011;2332;38.646;-9.154;2022-10-17T14:31:08;9.60;;;3.00;;
4638;SDS011;2332;38.646;-9.154;2022-10-17T14:33:46;14.70;;;3.80;;
4638;SDS011;2332;38.646;-9.154;2022-10-17T14:36:13;10.43;;;3.40;;
4638;SDS011;2332;38.646;-9.154;2022-10-17T14:38:43;6.57;;;3.20;;
4638;SDS011;2332;38.646;-9.154;2022-10-17T14:43:55;15.70;;;3.63;;
4638;SDS011;2332;38.646;-9.154;2022-10-17T14:46:22;12.83;;;3.40;;
4638;SDS011;2332;38.646;-9.154;2022-10-17T14:48:52;10.50;;;3.33;;
4638;SDS011;2332;38.646;-9.154;2022-10-17T14:51:19;9.43;;;3.40;;
4638;SDS011;2332;38.646;-9.154;2022-10-17T14:54:04;6.17;;;3.83;;
4638;SDS011;2332;38.646;-9.154;2022-10-17T14:56:48;13.73;;;4.20;;
4638;SDS011;2332;38.646;-9.154;2022-10-17T14:59:15;14.87;;;5.20;;
4638;SDS011;2332;38.646;-9.154;2022-10-17T15:01:46;7.13;;;4.47;;
4638;SDS011;2332;38.646;-9.154;2022-10-17T15:04:15;10.03;;;4.30;;
4638;SDS011;2332;38.646;-9.154;2022-10-17T15:06:41;13.50;;;5.47;;
4638;SDS011;2332;38.646;-9.154;2022-10-17T15:09:08;14.20;;;4.77;;
4638;SDS011;2332;38.646;-9.154;2022-10-17T15:11:34;11.37;;;5.40;;
4638;SDS011;2332;38.646;-9.154;2022-10-17T15:14:00;14.10;;;5.20;;
4638;SDS011;2332;38.646;-9.154;2022-10-17T15:16:26;10.83;;;5.43;;
4638;SDS011;2332;38.646;-9.154;2022-10-17T15:18:55;12.83;;;5.53;;
4638;SDS011;2332;38.646;-9.154;2022-10-17T15:21:21;16.20;;;6.00;;
4638;SDS011;2332;38.646;-9.154;2022-10-17T15:23:49;10.93;;;5.43;;
4638;SDS011;2332;38.646;-9.154;2022-10-17T15:26:19;14.27;;;5.73;;
4638;SDS011;2332;38.646;-9.154;2022-10-17T15:28:46;10.03;;;5.70;;
4638;SDS011;2332;38.646;-9.154;2022-10-17T15:31:15;12.10;;;5.90;;
4638;SDS011;2332;38.646;-9.154;2022-10-17T15:33:42;14.57;;;5.80;;
4638;SDS011;2332;38.646;-9.154;2022-10-17T15:38:51;11.50;;;4.93;;
4638;SDS011;2332;38.646;-9.154;2022-10-17T15:41:19;8.27;;;5.20;;
4638;SDS011;2332;38.646;-9.154;2022-10-17T15:43:48;12.40;;;5.57;;
4638;SDS011;2332;38.646;-9.154;2022-10-17T15:46:15;19.33;;;6.07;;
4638;SDS011;2332;38.646;-9.154;2022-10-17T15:48:43;8.97;;;5.40;;
4638;SDS011;2332;38.646;-9.154;2022-10-17T15:51:09;18.77;;;6.00;;
4638;SDS011;2332;38.646;-9.154;2022-10-17T15:53:34;13.50;;;5.30;;
4638;SDS011;2332;38.646;-9.154;2022-10-17T15:56:00;17.40;;;5.77;;
4638;SDS011;2332;38.646;-9.154;2022-10-17T15:58:28;13.87;;;6.37;;
4638;SDS011;2332;38.646;-9.154;2022-10-17T16:00:58;10.60;;;5.43;;
4638;SDS011;2332;38.646;-9.154;2022-10-17T16:03:24;9.10;;;5.70;;
4638;SDS011;2332;38.646;-9.154;2022-10-17T16:05:49;9.20;;;4.90;;
4638;SDS011;2332;38.646;-9.154;2022-10-17T16:08:15;17.27;;;5.40;;
4638;SDS011;2332;38.646;-9.154;2022-10-17T16:10:40;9.10;;;5.23;;
4638;SDS011;2332;38.646;-9.154;2022-10-17T16:13:10;13.70;;;5.60;;
4638;SDS011;2332;38.646;-9.154;2022-10-17T16:15:41;17.83;;;6.23;;
4638;SDS011;2332;38.646;-9.154;2022-10-17T16:18:07;12.13;;;5.60;;
4638;SDS011;2332;38.646;-9.154;2022-10-17T16:20:33;8.97;;;4.90;;
4638;SDS011;2332;38.646;-9.154;2022-10-17T16:22:58;14.20;;;5.37;;
4638;SDS011;2332;38.646;-9.154;2022-10-17T16:25:27;15.33;;;6.10;;
4638;SDS011;2332;38.646;-9.154;2022-10-17T16:27:54;12.77;;;5.70;;
4638;SDS011;2332;38.646;-9.154;2022-10-17T16:30:21;18.10;;;4.93;;
4638;SDS011;2332;38.646;-9.154;2022-10-17T16:32:48;8.73;;;5.43;;
4638;SDS011;2332;38.646;-9.154;2022-10-17T16:35:24;10.63;;;4.77;;
4638;SDS011;2332;38.646;-9.154;2022-10-17T16:37:53;9.50;;;4.60;;
4638;SDS011;2332;38.646;-9.154;2022-10-17T16:40:20;11.13;;;5.20;;
4638;SDS011;2332;38.646;-9.154;2022-10-17T16:42:46;13.40;;;4.67;;
4638;SDS011;2332;38.646;-9.154;2022-10-17T16:45:15;13.53;;;5.90;;
4638;SDS011;2332;38.646;-9.154;2022-10-17T16:47:42;10.20;;;5.27;;
4638;SDS011;2332;38.646;-9.154;2022-10-17T16:50:08;15.43;;;5.30;;
4638;SDS011;2332;38.646;-9.154;2022-10-17T16:52:33;14.90;;;4.60;;
4638;SDS011;2332;38.646;-9.154;2022-10-17T16:54:59;18.90;;;5.13;;
4638;SDS011;2332;38.646;-9.154;2022-10-17T16:57:24;9.60;;;4.97;;
4638;SDS011;2332;38.646;-9.154;2022-10-17T16:59:50;16.60;;;4.70;;
4638;SDS011;2332;38.646;-9.154;2022-10-17T17:02:16;9.70;;;3.60;;
4638;SDS011;2332;38.646;-9.154;2022-10-17T17:04:42;9.50;;;3.77;;
4638;SDS011;2332;38.646;-9.154;2022-10-17T17:07:08;13.60;;;4.43;;
4638;SDS011;2332;38.646;-9.154;2022-10-17T17:09:34;13.63;;;3.97;;
4638;SDS011;2332;38.646;-9.154;2022-10-17T17:11:59;8.17;;;4.03;;
4638;SDS011;2332;38.646;-9.154;2022-10-17T17:14:25;16.83;;;4.27;;